Time;durP1;ratioP1;P1;durP2;ratioP2;P2;SDS_P1;SDS_P2;PMS_P1;PMS_P2;Temp;Humidity;BMP_temperature;BMP_pressure;BME280_temperature;BME280_humidity;BME280_pressure;Samples;Min_cycle;Max_cycle;Signal;HPM_P1;HPM_P2
2022/08/15 00:00:50;;;;;;;16.25;9.25;;;23.20;99.90;;;;;;5065516;28;20191;-76
2022/08/15 00:03:32;;;;;;;18.10;9.10;;;23.30;99.90;;;;;;5065648;28;20202;-77
2022/08/15 00:06:04;;;;;;;13.60;8.45;;;23.20;99.90;;;;;;5063834;28;20270;-76
2022/08/15 00:08:35;;;;;;;17.45;8.90;;;23.20;99.90;;;;;;5062614;28;20187;-76
2022/08/15 00:11:15;;;;;;;20.00;8.93;;;23.20;99.90;;;;;;5062946;28;20872;-77
2022/08/15 00:13:44;;;;;;;20.10;9.15;;;23.20;99.90;;;;;;5065345;28;20925;-76
2022/08/15 00:16:16;;;;;;;14.63;8.55;;;23.20;99.90;;;;;;5065944;28;20186;-76
2022/08/15 00:18:43;;;;;;;13.38;8.82;;;23.20;99.90;;;;;;5061682;28;20175;-77
2022/08/15 00:21:11;;;;;;;17.05;9.00;;;23.20;99.90;;;;;;5063879;28;20670;-77
2022/08/15 00:23:41;;;;;;;14.70;9.10;;;23.10;99.90;;;;;;5049451;28;20308;-77
2022/08/15 00:26:10;;;;;;;21.98;8.85;;;23.10;99.90;;;;;;5065926;28;20186;-77
2022/08/15 00:28:37;;;;;;;13.75;9.48;;;23.10;99.90;;;;;;5081636;28;20205;-76
2022/08/15 00:31:08;;;;;;;12.70;9.18;;;23.10;99.90;;;;;;5077639;28;20195;-76
2022/08/15 00:33:35;;;;;;;16.15;9.88;;;23.20;99.90;;;;;;5065314;28;20233;-76
2022/08/15 00:36:05;;;;;;;14.98;9.32;;;23.10;99.90;;;;;;5064384;28;20190;-76
2022/08/15 00:38:35;;;;;;;13.27;8.87;;;23.10;99.90;;;;;;5082212;28;20195;-77
2022/08/15 00:43:57;;;;;;;16.48;8.73;;;23.10;99.90;;;;;;5064553;28;20197;-76
2022/08/15 00:46:28;;;;;;;17.30;10.00;;;23.20;99.90;;;;;;5066748;28;20249;-76
2022/08/15 00:48:55;;;;;;;15.73;8.60;;;23.20;99.90;;;;;;5065844;28;20556;-76
2022/08/15 00:51:39;;;;;;;16.85;9.27;;;23.20;99.90;;;;;;5062571;28;20268;-76
2022/08/15 00:54:17;;;;;;;15.75;9.35;;;23.10;99.90;;;;;;5083047;28;20240;-76
2022/08/15 00:56:54;;;;;;;14.65;9.25;;;23.20;99.90;;;;;;5056186;28;20226;-77
2022/08/15 00:59:27;;;;;;;14.93;8.18;;;23.20;99.90;;;;;;5077816;28;20190;-76
2022/08/15 01:01:57;;;;;;;11.80;8.93;;;23.30;99.90;;;;;;5064043;28;20218;-76
2022/08/15 01:04:28;;;;;;;16.90;9.65;;;23.30;99.90;;;;;;5065476;28;20274;-76
2022/08/15 01:06:58;;;;;;;16.30;9.25;;;23.30;99.90;;;;;;5062619;28;20194;-77
2022/08/15 01:09:27;;;;;;;15.23;8.38;;;23.30;99.90;;;;;;5084084;28;20189;-77
2022/08/15 01:12:25;;;;;;;15.40;9.32;;;23.30;99.90;;;;;;5063460;28;20972;-77
2022/08/15 01:15:01;;;;;;;13.90;8.88;;;23.30;99.90;;;;;;5065212;28;20555;-77
2022/08/15 01:17:31;;;;;;;18.03;9.33;;;23.30;99.90;;;;;;5064807;28;20690;-76
2022/08/15 01:20:08;;;;;;;18.20;9.90;;;23.30;99.90;;;;;;5060058;28;20217;-76
2022/08/15 01:22:59;;;;;;;21.50;9.32;;;23.20;99.90;;;;;;5043334;28;20179;-76
2022/08/15 01:25:52;;;;;;;18.05;9.85;;;23.20;99.90;;;;;;5042553;28;20194;-77
2022/08/15 01:28:26;;;;;;;10.20;8.17;;;23.20;99.90;;;;;;5060412;28;20237;-76
2022/08/15 01:31:11;;;;;;;11.30;8.25;;;23.20;99.90;;;;;;5066393;28;20261;-77
2022/08/15 01:33:51;;;;;;;17.52;9.23;;;23.20;99.90;;;;;;5048811;28;20179;-76
2022/08/15 01:36:20;;;;;;;15.88;8.60;;;23.20;99.90;;;;;;5067624;28;20175;-76
2022/08/15 01:39:07;;;;;;;12.32;8.27;;;23.20;99.90;;;;;;5067523;28;20183;-76
2022/08/15 01:41:44;;;;;;;15.98;8.77;;;23.20;99.90;;;;;;5067770;28;20270;-77
2022/08/15 01:44:47;;;;;;;13.90;8.65;;;23.10;99.90;;;;;;5069176;28;20269;-76
2022/08/15 01:47:33;;;;;;;15.77;9.35;;;23.20;99.90;;;;;;5031454;28;20198;-76
2022/08/15 01:50:20;;;;;;;16.00;8.88;;;23.10;99.90;;;;;;5047914;28;20245;-76
2022/08/15 01:53:01;;;;;;;18.58;9.85;;;23.00;99.90;;;;;;5052618;28;20663;-76
2022/08/15 01:55:53;;;;;;;19.33;9.38;;;23.10;99.90;;;;;;5053857;28;20253;-77
2022/08/15 01:58:20;;;;;;;13.03;8.67;;;23.10;99.90;;;;;;5079752;28;20206;-77
2022/08/15 02:00:51;;;;;;;17.15;9.02;;;23.10;99.90;;;;;;5089236;28;20183;-76
2022/08/15 02:03:19;;;;;;;15.77;8.95;;;23.00;99.90;;;;;;5070737;28;20190;-76
2022/08/15 02:05:46;;;;;;;13.77;8.70;;;23.00;99.90;;;;;;5088410;28;20182;-77
2022/08/15 02:08:13;;;;;;;15.07;9.00;;;23.00;99.90;;;;;;5087196;28;20190;-77
2022/08/15 02:10:43;;;;;;;14.93;8.32;;;22.90;99.90;;;;;;5071607;28;20224;-76
2022/08/15 02:13:10;;;;;;;14.20;9.38;;;23.00;99.90;;;;;;5050418;28;20184;-77
2022/08/15 02:15:36;;;;;;;12.25;8.48;;;22.90;99.90;;;;;;5052749;28;20195;-76
2022/08/15 02:18:03;;;;;;;15.47;8.97;;;22.80;99.90;;;;;;5070712;28;20202;-76
2022/08/15 02:20:29;;;;;;;16.52;9.18;;;22.90;99.90;;;;;;5053127;28;20278;-76
2022/08/15 02:22:56;;;;;;;15.80;8.55;;;22.80;99.90;;;;;;5070596;28;20178;-76
2022/08/15 02:25:22;;;;;;;13.73;9.27;;;22.80;99.90;;;;;;5071530;28;20179;-76
2022/08/15 02:27:49;;;;;;;20.10;9.30;;;22.80;99.90;;;;;;5070424;28;20218;-77
2022/08/15 02:30:18;;;;;;;18.30;9.13;;;22.70;99.90;;;;;;5070747;28;20195;-76
2022/08/15 02:32:46;;;;;;;13.60;9.30;;;22.70;99.90;;;;;;5070634;28;20232;-76
2022/08/15 02:35:14;;;;;;;13.60;8.70;;;22.70;99.90;;;;;;5072850;28;20206;-77
2022/08/15 02:37:41;;;;;;;13.82;8.88;;;22.70;99.90;;;;;;5086474;28;20206;-76
2022/08/15 02:40:14;;;;;;;13.13;8.70;;;22.70;99.90;;;;;;5072736;28;20179;-77
2022/08/15 02:42:42;;;;;;;14.60;9.13;;;22.70;99.90;;;;;;5069461;28;20201;-76
2022/08/15 02:45:10;;;;;;;14.52;8.70;;;22.70;99.90;;;;;;5054360;28;20179;-77
2022/08/15 02:47:43;;;;;;;14.70;8.77;;;22.60;99.90;;;;;;5070842;28;20190;-76
2022/08/15 02:50:16;;;;;;;13.37;8.73;;;22.70;99.90;;;;;;5087878;28;20182;-77
2022/08/15 02:52:48;;;;;;;17.02;9.52;;;22.70;99.90;;;;;;5070246;28;20217;-77
2022/08/15 02:55:15;;;;;;;20.65;9.93;;;22.70;99.90;;;;;;5070238;28;20182;-77
2022/08/15 02:57:42;;;;;;;17.33;9.40;;;22.60;99.90;;;;;;5071520;28;20241;-76
2022/08/15 03:00:15;;;;;;;19.17;9.52;;;22.60;99.90;;;;;;5087773;28;20206;-76
2022/08/15 03:03:07;;;;;;;16.13;8.93;;;22.60;99.90;;;;;;5070174;28;20271;-77
2022/08/15 03:05:37;;;;;;;14.60;9.15;;;22.60;99.90;;;;;;5066499;28;20298;-77
2022/08/15 03:08:05;;;;;;;18.13;9.88;;;22.60;99.90;;;;;;5067223;28;20191;-77
2022/08/15 03:10:32;;;;;;;11.52;9.27;;;22.60;99.90;;;;;;5067267;28;20183;-76
2022/08/15 03:13:07;;;;;;;15.30;9.07;;;22.70;99.90;;;;;;5069241;28;20194;-77
2022/08/15 03:15:51;;;;;;;14.63;8.85;;;22.70;99.90;;;;;;5068607;28;20289;-76
2022/08/15 03:18:17;;;;;;;16.38;9.00;;;22.60;99.90;;;;;;5062005;28;20249;-77
2022/08/15 03:20:46;;;;;;;17.45;9.77;;;22.60;99.90;;;;;;5071720;28;20187;-77
2022/08/15 03:23:14;;;;;;;17.13;9.02;;;22.70;99.90;;;;;;5049921;28;20641;-77
2022/08/15 03:25:44;;;;;;;15.75;9.23;;;22.70;99.90;;;;;;5085029;28;20233;-77
2022/08/15 03:28:11;;;;;;;15.35;9.02;;;22.70;99.90;;;;;;5066087;28;20192;-76
2022/08/15 03:30:38;;;;;;;15.27;8.70;;;22.70;99.90;;;;;;5070120;28;20207;-77
2022/08/15 03:33:08;;;;;;;16.20;10.30;;;22.70;99.90;;;;;;5069563;28;20218;-77
2022/08/15 03:35:47;;;;;;;17.08;9.48;;;22.70;99.90;;;;;;5069321;28;20214;-77
2022/08/15 03:38:14;;;;;;;15.07;9.02;;;22.70;99.90;;;;;;5086798;28;20422;-75
2022/08/15 03:40:44;;;;;;;16.95;9.52;;;22.70;99.90;;;;;;5053392;28;20210;-77
2022/08/15 03:43:26;;;;;;;13.87;9.27;;;22.70;99.90;;;;;;5085856;28;20206;-76
2022/08/15 03:46:04;;;;;;;16.00;9.48;;;22.60;99.90;;;;;;5053147;28;20178;-76
2022/08/15 03:48:38;;;;;;;13.40;9.77;;;22.70;99.90;;;;;;5086235;28;20182;-77
2022/08/15 03:51:11;;;;;;;17.55;8.93;;;22.70;99.90;;;;;;5053019;28;20194;-76
2022/08/15 03:53:44;;;;;;;14.03;9.27;;;22.80;99.90;;;;;;5069146;28;20502;-76
2022/08/15 03:56:15;;;;;;;16.30;9.07;;;22.80;99.90;;;;;;5086167;28;20208;-77
2022/08/15 03:58:42;;;;;;;11.75;8.73;;;22.80;99.90;;;;;;5052746;28;20237;-76
2022/08/15 04:01:17;;;;;;;13.77;8.93;;;22.80;99.90;;;;;;5068412;28;20191;-77
2022/08/15 04:03:49;;;;;;;13.93;9.20;;;22.80;99.90;;;;;;5070358;28;20196;-77
2022/08/15 04:06:20;;;;;;;16.92;9.35;;;22.80;99.90;;;;;;5053069;28;20277;-77
2022/08/15 04:08:50;;;;;;;17.50;8.73;;;22.80;99.90;;;;;;5069516;28;20174;-77
2022/08/15 04:11:21;;;;;;;15.93;9.38;;;22.80;99.90;;;;;;5085416;28;20273;-76
2022/08/15 04:13:48;;;;;;;20.00;9.00;;;22.80;99.90;;;;;;5064027;28;20183;-77
2022/08/15 04:16:15;;;;;;;16.73;9.30;;;22.80;99.90;;;;;;5049116;28;20179;-77
2022/08/15 04:18:41;;;;;;;16.88;9.25;;;22.80;99.90;;;;;;5065948;28;20664;-77
2022/08/15 04:21:11;;;;;;;11.98;8.80;;;22.80;99.90;;;;;;5049730;28;20183;-76
2022/08/15 04:23:40;;;;;;;17.13;9.73;;;22.90;99.90;;;;;;5072736;28;20175;-76
2022/08/15 04:26:07;;;;;;;12.85;8.88;;;22.90;99.90;;;;;;5068843;28;20225;-76
2022/08/15 04:28:34;;;;;;;18.60;9.90;;;22.90;99.90;;;;;;5067590;28;20790;-77
2022/08/15 04:31:06;;;;;;;13.73;8.68;;;23.00;99.90;;;;;;5085949;28;20222;-77
2022/08/15 04:33:34;;;;;;;15.20;9.13;;;23.00;99.90;;;;;;5068870;28;20183;-77
2022/08/15 04:36:14;;;;;;;20.02;9.70;;;23.10;99.90;;;;;;5069811;28;20194;-77
2022/08/15 04:38:43;;;;;;;19.25;8.88;;;23.10;99.90;;;;;;5069179;28;20281;-77
2022/08/15 04:41:11;;;;;;;14.50;9.50;;;23.20;99.90;;;;;;5070194;28;20189;-77
2022/08/15 04:43:41;;;;;;;16.15;9.57;;;23.20;99.90;;;;;;5051946;28;20549;-77
2022/08/15 04:46:09;;;;;;;18.45;9.25;;;23.30;99.90;;;;;;5068606;28;20273;-76
2022/08/15 04:48:35;;;;;;;16.13;9.25;;;23.30;99.90;;;;;;5085213;28;20244;-76
2022/08/15 04:51:08;;;;;;;12.90;8.65;;;23.30;99.90;;;;;;5068930;28;20214;-76
2022/08/15 04:53:39;;;;;;;14.57;8.18;;;23.40;99.90;;;;;;5068123;28;20178;-77
2022/08/15 04:56:07;;;;;;;13.60;8.55;;;23.40;99.90;;;;;;5085786;28;20282;-76
2022/08/15 04:58:35;;;;;;;13.00;8.25;;;23.50;99.90;;;;;;5069642;28;20245;-77
2022/08/15 05:01:12;;;;;;;12.15;8.70;;;23.50;99.90;;;;;;5084711;28;20190;-76
2022/08/15 05:03:39;;;;;;;12.68;9.18;;;23.60;99.90;;;;;;5067941;28;20260;-76
2022/08/15 05:06:10;;;;;;;14.15;8.73;;;23.60;99.90;;;;;;5068593;28;20270;-77
2022/08/15 05:08:38;;;;;;;15.95;8.35;;;23.60;99.90;;;;;;5068741;28;20179;-76
2022/08/15 05:11:13;;;;;;;15.55;8.07;;;23.70;99.90;;;;;;5085430;28;20636;-76
2022/08/15 05:13:42;;;;;;;11.68;8.20;;;23.70;99.90;;;;;;5067040;28;20198;-77
2022/08/15 05:16:10;;;;;;;15.27;8.20;;;23.80;99.90;;;;;;5065672;28;20196;-77
2022/08/15 05:18:40;;;;;;;14.60;8.45;;;23.80;99.90;;;;;;5058525;28;20197;-76
2022/08/15 05:21:09;;;;;;;16.05;8.30;;;23.80;99.90;;;;;;5085098;28;20187;-77
2022/08/15 05:23:39;;;;;;;11.90;8.43;;;23.80;99.90;;;;;;5082526;28;20640;-77
2022/08/15 05:26:08;;;;;;;11.18;7.63;;;23.80;99.90;;;;;;5069716;28;20187;-76
2022/08/15 05:28:34;;;;;;;12.15;7.93;;;23.90;99.90;;;;;;5089026;28;20264;-77
2022/08/15 05:31:06;;;;;;;10.27;7.22;;;24.00;99.90;;;;;;5070607;28;20183;-77
2022/08/15 05:33:34;;;;;;;14.48;7.88;;;24.00;99.90;;;;;;5073195;28;20213;-77
2022/08/15 05:36:06;;;;;;;11.48;7.30;;;24.10;99.90;;;;;;5089172;28;20629;-77
2022/08/15 05:38:41;;;;;;;12.85;7.50;;;24.20;99.90;;;;;;5072342;28;20222;-77
2022/08/15 05:41:34;;;;;;;11.07;6.88;;;24.30;99.90;;;;;;5071542;28;20236;-77
2022/08/15 05:44:28;;;;;;;13.02;7.35;;;24.30;99.90;;;;;;5066574;28;20577;-76
2022/08/15 05:46:59;;;;;;;14.20;7.80;;;24.40;99.90;;;;;;5061813;28;20817;-76
2022/08/15 05:50:08;;;;;;;16.73;7.50;;;24.40;99.90;;;;;;5072218;28;20649;-77
2022/08/15 05:52:53;;;;;;;10.60;6.82;;;24.50;99.90;;;;;;5067429;28;20676;-76
2022/08/15 05:55:40;;;;;;;12.38;7.05;;;24.50;99.90;;;;;;5053682;28;20196;-77
2022/08/15 05:58:18;;;;;;;15.55;7.63;;;24.50;99.90;;;;;;5069812;28;20205;-77
2022/08/15 06:00:55;;;;;;;20.10;7.90;;;24.50;99.90;;;;;;5080725;28;20265;-77
2022/08/15 06:03:26;;;;;;;14.02;7.00;;;24.50;99.90;;;;;;5053933;28;20272;-77
2022/08/15 06:05:59;;;;;;;10.35;7.15;;;24.50;99.90;;;;;;5088906;28;20187;-77
2022/08/15 06:08:40;;;;;;;12.00;6.95;;;24.50;99.90;;;;;;5071936;28;20182;-77
2022/08/15 06:11:39;;;;;;;14.65;7.30;;;24.60;99.90;;;;;;5067472;28;20195;-77
2022/08/15 06:14:31;;;;;;;12.88;7.38;;;24.60;99.90;;;;;;5076566;28;20183;-77
2022/08/15 06:17:12;;;;;;;11.98;6.80;;;24.80;99.90;;;;;;5072668;28;20547;-77
2022/08/15 06:19:46;;;;;;;11.90;7.22;;;24.90;99.90;;;;;;5054957;28;20881;-77
2022/08/15 06:22:53;;;;;;;9.82;6.65;;;25.00;99.90;;;;;;5087070;28;20184;-77
2022/08/15 06:25:42;;;;;;;11.73;6.80;;;25.10;99.90;;;;;;5051613;28;20226;-77
2022/08/15 06:28:18;;;;;;;14.52;7.25;;;25.30;99.90;;;;;;5056142;28;20202;-77
2022/08/15 06:31:05;;;;;;;13.13;7.03;;;25.30;99.90;;;;;;5069962;28;20590;-77
2022/08/15 06:34:00;;;;;;;14.45;7.38;;;25.30;99.90;;;;;;5053534;28;20240;-77
2022/08/15 06:36:51;;;;;;;9.05;7.07;;;25.20;99.90;;;;;;5071500;28;20213;-77
2022/08/15 06:39:55;;;;;;;11.63;7.00;;;25.20;99.90;;;;;;5088262;28;20178;-77
2022/08/15 06:42:44;;;;;;;14.00;7.43;;;25.20;99.90;;;;;;5087828;28;20194;-77
2022/08/15 06:45:33;;;;;;;10.13;7.40;;;25.30;99.90;;;;;;5088566;28;20187;-77
2022/08/15 06:48:13;;;;;;;14.10;7.80;;;25.30;99.90;;;;;;5073595;28;20870;-77
2022/08/15 06:50:51;;;;;;;12.00;7.30;;;25.40;99.90;;;;;;5051783;28;20191;-77
2022/08/15 06:53:53;;;;;;;12.98;7.20;;;25.50;99.90;;;;;;5051137;28;20191;-77
2022/08/15 06:56:33;;;;;;;8.77;6.65;;;25.60;99.90;;;;;;5051343;28;20183;-77
2022/08/15 07:00:00;;;;;;;12.38;7.50;;;25.60;99.90;;;;;;5062291;28;20218;-77
2022/08/15 07:03:10;;;;;;;9.15;6.65;;;25.60;99.90;;;;;;5061390;28;20205;-78
2022/08/15 07:05:47;;;;;;;10.68;6.95;;;25.70;99.90;;;;;;5086361;28;20209;-74
2022/08/15 07:08:38;;;;;;;13.45;7.05;;;25.80;99.90;;;;;;5070721;28;20187;-77
2022/08/15 07:11:24;;;;;;;11.88;7.28;;;26.00;99.90;;;;;;5069859;28;20191;-78
2022/08/15 07:14:09;;;;;;;10.52;7.32;;;26.10;99.90;;;;;;5077563;28;20210;-77
2022/08/15 07:17:03;;;;;;;16.30;7.50;;;26.10;99.90;;;;;;5068656;28;20257;-75
2022/08/15 07:19:31;;;;;;;9.68;7.63;;;26.20;99.90;;;;;;5050590;28;20191;-74
2022/08/15 07:21:58;;;;;;;11.70;6.57;;;26.30;99.90;;;;;;5053390;28;20191;-75
2022/08/15 07:24:31;;;;;;;10.23;6.88;;;26.40;99.90;;;;;;5066461;28;20586;-75
2022/08/15 07:27:16;;;;;;;8.75;7.15;;;26.50;99.90;;;;;;5069374;28;20183;-75
2022/08/15 07:29:48;;;;;;;12.32;7.55;;;26.60;99.90;;;;;;5069075;28;20189;-75
2022/08/15 07:32:44;;;;;;;8.55;6.68;;;26.70;99.90;;;;;;5069214;28;20193;-75
2022/08/15 07:35:13;;;;;;;17.40;7.53;;;26.70;99.90;;;;;;5086140;28;20191;-76
2022/08/15 07:37:56;;;;;;;9.32;6.93;;;26.70;99.90;;;;;;5069530;28;20210;-75
2022/08/15 07:40:41;;;;;;;9.88;6.88;;;26.80;99.90;;;;;;5046586;28;20171;-75
2022/08/15 07:43:32;;;;;;;12.85;6.90;;;26.80;99.90;;;;;;5082372;28;20194;-75
2022/08/15 07:46:38;;;;;;;11.63;6.60;;;26.80;99.90;;;;;;5062012;28;20179;-76
2022/08/15 07:49:27;;;;;;;11.77;7.30;;;26.90;99.90;;;;;;5063339;28;20194;-76
2022/08/15 07:52:07;;;;;;;10.38;7.03;;;27.00;99.90;;;;;;5061325;28;20610;-76
2022/08/15 07:54:45;;;;;;;10.77;6.65;;;27.10;99.90;;;;;;5078559;28;20193;-75
2022/08/15 07:57:36;;;;;;;10.50;6.43;;;27.20;99.90;;;;;;5069732;28;20285;-76
2022/08/15 08:00:14;;;;;;;12.45;7.03;;;27.20;99.90;;;;;;5062891;28;20183;-75
2022/08/15 08:03:20;;;;;;;10.10;6.53;;;27.30;99.90;;;;;;5067754;28;20563;-76
2022/08/15 08:06:07;;;;;;;9.63;6.10;;;27.20;99.90;;;;;;5064769;28;20183;-76
2022/08/15 08:08:59;;;;;;;11.80;6.30;;;27.20;99.90;;;;;;5067456;28;20198;-76
2022/08/15 08:11:48;;;;;;;10.18;5.82;;;27.30;99.90;;;;;;5050177;28;20217;-76
2022/08/15 08:14:39;;;;;;;11.07;6.50;;;27.40;99.90;;;;;;5082242;28;20657;-76
2022/08/15 08:17:33;;;;;;;9.75;6.07;;;27.50;99.90;;;;;;5049735;28;20247;-76
2022/08/15 08:20:29;;;;;;;10.23;5.38;;;27.50;99.90;;;;;;5080221;28;20240;-76
2022/08/15 08:23:22;;;;;;;7.70;5.00;;;27.60;99.90;;;;;;5058398;28;20205;-77
2022/08/15 08:26:11;;;;;;;7.32;5.00;;;27.70;99.90;;;;;;5071447;28;20222;-76
2022/08/15 08:29:06;;;;;;;10.07;4.80;;;27.80;99.90;;;;;;5082989;28;20187;-75
2022/08/15 08:32:12;;;;;;;9.60;5.15;;;27.90;99.90;;;;;;5049073;28;20190;-75
2022/08/15 08:35:07;;;;;;;9.75;5.38;;;27.90;99.90;;;;;;5066073;28;20625;-75
2022/08/15 08:37:48;;;;;;;8.07;4.78;;;28.00;99.90;;;;;;5084275;28;20210;-75
2022/08/15 08:44:15;;;;;;;10.82;5.07;;;28.10;99.90;;;;;;5072635;28;20198;-76
2022/08/15 08:47:16;;;;;;;11.05;5.43;;;28.30;99.90;;;;;;5037511;28;20178;-76
2022/08/15 08:50:31;;;;;;;10.15;4.97;;;28.30;99.90;;;;;;5061631;28;20180;-76
2022/08/15 08:53:47;;;;;;;9.73;5.32;;;28.30;99.90;;;;;;5085041;28;20187;-76
2022/08/15 08:56:25;;;;;;;10.10;5.03;;;28.50;99.90;;;;;;5039687;28;20679;-77
2022/08/15 08:59:02;;;;;;;10.45;4.75;;;28.50;99.90;;;;;;5064034;28;20186;-76
2022/08/15 09:01:35;;;;;;;7.28;4.70;;;28.40;99.90;;;;;;5051612;28;20182;-75
2022/08/15 09:04:18;;;;;;;7.50;4.90;;;28.30;99.90;;;;;;5067967;28;20186;-75
2022/08/15 09:06:50;;;;;;;13.30;5.57;;;28.30;99.90;;;;;;5070405;28;20193;-75
2022/08/15 09:09:38;;;;;;;6.72;4.60;;;28.50;99.90;;;;;;5071507;28;20183;-75
2022/08/15 09:15:17;;;;;;;11.48;4.90;;;28.70;99.90;;;;;;5065441;28;20274;-75
2022/08/15 09:17:52;;;;;;;10.05;4.97;;;28.70;99.90;;;;;;5082573;28;20285;-76
2022/08/15 09:20:38;;;;;;;11.77;5.40;;;28.90;99.90;;;;;;5084894;28;20186;-75
2022/08/15 09:23:10;;;;;;;11.80;5.75;;;29.00;99.90;;;;;;5072723;28;20190;-75
2022/08/15 09:26:29;;;;;;;8.68;4.60;;;29.10;99.90;;;;;;5088875;28;20271;-75
2022/08/15 09:29:28;;;;;;;8.48;4.95;;;29.20;99.90;;;;;;5069717;28;20199;-75
2022/08/15 09:32:28;;;;;;;10.82;4.80;;;29.30;99.90;;;;;;5078425;28;20201;-76
2022/08/15 09:35:20;;;;;;;9.85;4.78;;;29.50;99.90;;;;;;5050821;28;20182;-76
2022/08/15 09:38:21;;;;;;;10.65;5.20;;;29.50;99.90;;;;;;5061281;28;20553;-76
2022/08/15 09:41:24;;;;;;;11.18;5.03;;;29.50;99.90;;;;;;5067373;28;20697;-76
2022/08/15 09:44:20;;;;;;;14.65;5.20;;;29.70;99.90;;;;;;5084545;28;20186;-75
2022/08/15 09:47:08;;;;;;;10.18;5.22;;;29.80;99.90;;;;;;5068983;28;20252;-76
2022/08/15 09:50:09;;;;;;;8.00;5.00;;;29.90;99.90;;;;;;5084746;28;20195;-75
2022/08/15 09:53:07;;;;;;;11.55;4.30;;;30.10;99.90;;;;;;5062259;28;20904;-75
2022/08/15 09:55:47;;;;;;;9.07;3.95;;;30.10;99.90;;;;;;5067415;28;20679;-76
2022/08/15 09:58:29;;;;;;;7.72;4.40;;;30.10;99.90;;;;;;5066539;28;20203;-76
2022/08/15 10:01:19;;;;;;;9.82;4.90;;;30.20;99.90;;;;;;5061800;28;20186;-76
2022/08/15 10:03:51;;;;;;;7.00;3.97;;;30.20;99.90;;;;;;5072616;28;20252;-75
2022/08/15 10:06:51;;;;;;;10.38;5.05;;;30.30;99.90;;;;;;5057621;28;20182;-76
2022/08/15 10:09:35;;;;;;;10.77;4.72;;;30.40;99.90;;;;;;5066631;28;20202;-76
2022/08/15 10:12:08;;;;;;;9.43;4.35;;;30.50;99.90;;;;;;5067528;28;20240;-76
2022/08/15 10:14:47;;;;;;;7.22;4.18;;;30.30;99.90;;;;;;5066373;28;20183;-76
2022/08/15 10:17:35;;;;;;;10.07;3.95;;;30.40;99.90;;;;;;5069106;28;20298;-75
2022/08/15 10:20:17;;;;;;;7.70;4.78;;;30.40;99.90;;;;;;5054449;28;20183;-75
2022/08/15 10:23:13;;;;;;;7.07;4.30;;;30.60;99.90;;;;;;5079213;28;20194;-76
2022/08/15 10:25:52;;;;;;;7.40;3.92;;;30.60;99.90;;;;;;5061876;28;20187;-76
2022/08/15 10:28:28;;;;;;;8.20;4.10;;;30.70;99.90;;;;;;5054179;28;20182;-77
2022/08/15 10:31:02;;;;;;;6.93;4.68;;;30.70;99.90;;;;;;5051285;28;20194;-77
2022/08/15 10:33:34;;;;;;;8.00;4.22;;;30.80;99.90;;;;;;5053231;28;20650;-77
2022/08/15 10:36:13;;;;;;;7.15;4.03;;;30.90;99.90;;;;;;5052332;28;20218;-77
2022/08/15 10:39:31;;;;;;;6.80;3.83;;;30.80;99.90;;;;;;5064864;28;20300;-76
2022/08/15 10:42:13;;;;;;;5.80;3.70;;;30.80;99.90;;;;;;5087777;28;20178;-76
2022/08/15 10:45:11;;;;;;;7.03;4.25;;;30.90;99.90;;;;;;5072057;28;20179;-75
2022/08/15 10:47:54;;;;;;;10.82;4.13;;;30.90;99.90;;;;;;5070392;28;20849;-76
2022/08/15 10:50:45;;;;;;;6.38;4.15;;;30.60;99.90;;;;;;5088064;28;20183;-76
2022/08/15 10:53:40;;;;;;;7.53;3.95;;;30.70;99.90;;;;;;5070357;28;20194;-76
2022/08/15 10:56:26;;;;;;;6.80;4.00;;;30.70;99.90;;;;;;5061849;28;20194;-77
2022/08/15 10:59:19;;;;;;;9.98;4.50;;;30.70;99.90;;;;;;5074850;28;20222;-76
2022/08/15 11:01:48;;;;;;;11.52;4.50;;;30.80;99.90;;;;;;5053474;28;20202;-76
2022/08/15 11:04:35;;;;;;;6.68;4.25;;;30.70;99.90;;;;;;5072045;28;20282;-76
2022/08/15 11:07:23;;;;;;;8.57;4.65;;;30.70;99.90;;;;;;5066330;28;20195;-76
2022/08/15 11:10:12;;;;;;;9.10;4.00;;;31.00;99.90;;;;;;5069346;28;20183;-77
2022/08/15 11:12:46;;;;;;;8.88;3.90;;;31.00;99.90;;;;;;5059278;28;20262;-77
2022/08/15 11:15:20;;;;;;;4.78;3.50;;;30.90;99.90;;;;;;5069785;28;20209;-77
2022/08/15 11:17:57;;;;;;;11.05;3.95;;;30.80;99.90;;;;;;5070534;28;20210;-76
2022/08/15 11:21:23;;;;;;;12.73;4.50;;;30.50;99.90;;;;;;5066056;28;20190;-76
2022/08/15 11:24:07;;;;;;;6.28;3.47;;;30.40;99.90;;;;;;5042605;28;20190;-76
2022/08/15 11:26:42;;;;;;;6.72;3.97;;;30.50;99.90;;;;;;5086676;28;20217;-76
2022/08/15 11:29:24;;;;;;;6.43;3.83;;;30.60;99.90;;;;;;5055837;28;20187;-76
2022/08/15 11:31:52;;;;;;;7.47;3.95;;;30.60;99.90;;;;;;5058413;28;20803;-76
2022/08/15 11:34:43;;;;;;;7.43;4.05;;;30.70;99.90;;;;;;5070962;28;20252;-76
2022/08/15 11:37:37;;;;;;;5.25;3.67;;;30.50;99.90;;;;;;5083875;28;20286;-76
2022/08/15 11:40:17;;;;;;;6.80;3.58;;;30.30;99.90;;;;;;5065547;28;20213;-76
2022/08/15 11:42:46;;;;;;;7.18;3.65;;;30.60;99.90;;;;;;5087221;28;20288;-75
2022/08/15 11:45:27;;;;;;;8.75;4.20;;;30.70;99.90;;;;;;5070063;28;20199;-76
2022/08/15 11:47:58;;;;;;;6.55;3.85;;;30.60;99.90;;;;;;5061564;28;20249;-76
2022/08/15 11:50:36;;;;;;;7.95;4.18;;;30.60;99.90;;;;;;5069778;28;20195;-76
2022/08/15 11:53:10;;;;;;;7.53;3.60;;;30.60;99.90;;;;;;5050352;28;20191;-76
2022/08/15 11:55:39;;;;;;;6.55;3.78;;;30.50;99.90;;;;;;5050036;28;20183;-77
2022/08/15 11:58:14;;;;;;;7.32;3.75;;;30.50;99.90;;;;;;5062307;28;20221;-77
2022/08/15 12:00:51;;;;;;;11.43;3.75;;;30.40;99.90;;;;;;5052751;28;20304;-77
2022/08/15 12:03:30;;;;;;;8.13;3.97;;;30.40;99.90;;;;;;5057211;28;20186;-77
2022/08/15 12:06:22;;;;;;;10.68;3.95;;;30.40;99.90;;;;;;5067487;28;20186;-77
2022/08/15 12:08:51;;;;;;;10.55;3.65;;;30.50;99.90;;;;;;5070632;28;20190;-77
2022/08/15 12:11:24;;;;;;;6.03;3.28;;;30.50;99.90;;;;;;5052634;28;20201;-76
2022/08/15 12:14:18;;;;;;;6.88;3.63;;;30.40;99.90;;;;;;5066851;28;20198;-76
2022/08/15 12:16:56;;;;;;;6.13;3.25;;;30.40;99.90;;;;;;5052752;28;20218;-77
2022/08/15 12:19:42;;;;;;;7.80;3.40;;;30.30;99.90;;;;;;5067920;28;20183;-77
2022/08/15 12:22:24;;;;;;;11.95;3.25;;;30.40;99.90;;;;;;5059425;28;20201;-77
2022/08/15 12:24:51;;;;;;;6.90;3.38;;;30.20;99.90;;;;;;5062804;28;20237;-77
2022/08/15 12:27:17;;;;;;;5.90;3.90;;;30.30;99.90;;;;;;5069316;28;20183;-76
2022/08/15 12:29:44;;;;;;;7.07;3.80;;;30.40;99.90;;;;;;5063386;28;20207;-77
2022/08/15 12:32:14;;;;;;;5.05;3.22;;;30.50;99.90;;;;;;5072527;28;20210;-76
2022/08/15 12:34:51;;;;;;;6.57;4.00;;;30.40;99.90;;;;;;5048868;28;20187;-78
2022/08/15 12:37:25;;;;;;;6.97;3.83;;;30.30;99.90;;;;;;5067585;28;20202;-78
2022/08/15 12:39:58;;;;;;;9.57;3.58;;;30.40;99.90;;;;;;5068670;28;20191;-77
2022/08/15 12:42:34;;;;;;;7.30;3.58;;;30.30;99.90;;;;;;5049352;28;20270;-77
2022/08/15 12:45:15;;;;;;;7.20;3.40;;;30.30;99.90;;;;;;5068337;28;20178;-77
2022/08/15 12:47:48;;;;;;;10.40;3.67;;;30.30;99.90;;;;;;5085344;28;20277;-77
2022/08/15 12:50:15;;;;;;;8.38;3.80;;;30.40;99.90;;;;;;5069666;28;20900;-77
2022/08/15 12:52:42;;;;;;;7.43;4.07;;;30.30;99.90;;;;;;5068857;28;20217;-77
2022/08/15 12:55:10;;;;;;;9.80;3.63;;;30.30;99.90;;;;;;5066030;28;20229;-77
2022/08/15 12:57:37;;;;;;;7.25;3.55;;;30.30;99.90;;;;;;5068660;28;20241;-77
2022/08/15 13:00:07;;;;;;;8.77;3.90;;;30.30;99.90;;;;;;5070628;28;20223;-77
2022/08/15 13:02:41;;;;;;;10.15;3.83;;;30.30;99.90;;;;;;5057580;28;20178;-76
2022/08/15 13:05:23;;;;;;;8.45;3.47;;;30.20;99.90;;;;;;5067001;28;20208;-77
2022/08/15 13:07:50;;;;;;;6.32;3.10;;;30.10;99.90;;;;;;5062399;28;20205;-77
2022/08/15 13:10:19;;;;;;;6.00;3.28;;;30.10;99.90;;;;;;5066885;28;20248;-77
2022/08/15 13:12:51;;;;;;;8.48;3.67;;;30.10;99.90;;;;;;5059077;28;20777;-76
2022/08/15 13:15:21;;;;;;;8.27;3.95;;;30.20;99.90;;;;;;5070196;28;20191;-78
2022/08/15 13:17:48;;;;;;;9.40;4.05;;;30.10;99.90;;;;;;5055255;28;20552;-76
2022/08/15 13:25:51;;;;;;;4.20;3.30;;;30.10;99.90;;;;;;5066933;28;20182;-77
2022/08/15 13:28:20;;;;;;;8.00;3.65;;;30.10;99.90;;;;;;5069894;28;20198;-76
2022/08/15 13:30:49;;;;;;;6.28;3.25;;;30.00;99.90;;;;;;5086964;28;20182;-77
2022/08/15 13:33:17;;;;;;;5.97;3.50;;;29.90;99.90;;;;;;5072586;28;20194;-77
2022/08/15 13:35:43;;;;;;;6.10;4.13;;;29.90;99.90;;;;;;5093123;28;20591;-77
2022/08/15 13:38:10;;;;;;;5.75;3.85;;;29.80;99.90;;;;;;5065780;28;20211;-77
2022/08/15 13:40:39;;;;;;;5.20;3.50;;;29.80;99.90;;;;;;5082881;28;20180;-77
2022/08/15 13:43:07;;;;;;;4.68;3.53;;;29.90;99.90;;;;;;5059861;28;20184;-76
2022/08/15 13:45:39;;;;;;;8.50;3.33;;;29.90;99.90;;;;;;5063499;28;20200;-75
2022/08/15 13:48:12;;;;;;;8.30;3.17;;;29.80;99.90;;;;;;5072925;28;20179;-77
2022/08/15 13:50:44;;;;;;;5.70;4.10;;;29.80;99.90;;;;;;5059049;28;20595;-77
2022/08/15 13:53:14;;;;;;;7.70;3.90;;;29.80;99.90;;;;;;5086238;28;20190;-76